createdAt,value
2023-05-02T00:00:33.938Z,100372.94
2023-05-02T00:05:35.361Z,100377.53
2023-05-02T00:10:36.892Z,100373.41
2023-05-02T00:15:38.222Z,100373.44
2023-05-02T00:20:40.872Z,100367.81
2023-05-02T00:25:46.123Z,100365.28
2023-05-02T00:30:47.565Z,100370.94
2023-05-02T00:35:48.915Z,100373.59
2023-05-02T00:40:53.493Z,100367.75
2023-05-02T00:45:55.339Z,100373.19
2023-05-02T00:50:57.379Z,100378.44
2023-05-02T00:55:59.344Z,100381.63
2023-05-02T01:01:19.626Z,100375.16
2023-05-02T01:06:39.611Z,100378.06
2023-05-02T01:12:05.624Z,100382.69
2023-05-02T01:17:11.217Z,100390.00
2023-05-02T01:22:14.398Z,100388.31
2023-05-02T01:27:28.084Z,100397.91
2023-05-02T01:32:33.434Z,100400.41
2023-05-02T01:37:38.100Z,100412.72
2023-05-02T01:42:41.274Z,100422.31
2023-05-02T01:47:44.683Z,100420.63
2023-05-02T01:52:47.466Z,100424.19
2023-05-02T01:57:50.627Z,100425.63
2023-05-02T02:02:55.758Z,100418.75
2023-05-02T02:07:58.442Z,100433.97
2023-05-02T02:13:26.364Z,100430.88
2023-05-02T02:18:29.408Z,100437.72
2023-05-02T02:23:33.752Z,100439.41
2023-05-02T02:28:35.155Z,100453.59
2023-05-02T02:33:36.720Z,100455.03
2023-05-02T02:38:50.598Z,100452.56
2023-05-02T02:44:26.010Z,100463.38
2023-05-02T02:50:09.595Z,100461.88
2023-05-02T02:55:25.031Z,100469.78
2023-05-02T03:00:28.663Z,100471.19
2023-05-02T03:05:32.845Z,100469.69
2023-05-02T03:10:34.182Z,100479.13
2023-05-02T03:15:59.087Z,100486.75
2023-05-02T03:21:01.007Z,100489.69
2023-05-02T03:26:02.884Z,100493.00
2023-05-02T03:31:04.415Z,100507.59
2023-05-02T03:36:07.084Z,100520.88
2023-05-02T03:41:08.440Z,100520.88
2023-05-02T03:46:11.500Z,100527.28
2023-05-02T03:51:13.334Z,100527.03
2023-05-02T03:56:20.033Z,100533.44
2023-05-02T04:01:21.455Z,100544.50
2023-05-02T04:06:22.906Z,100554.41
2023-05-02T04:11:26.183Z,100564.44
2023-05-02T04:16:27.541Z,100559.59
2023-05-02T04:21:28.889Z,100559.06
2023-05-02T04:26:30.330Z,100575.56
2023-05-02T04:31:32.767Z,100582.09
2023-05-02T04:36:34.625Z,100601.50
2023-05-02T05:03:33.589Z,100648.72
2023-05-02T05:08:35.110Z,100649.09
2023-05-02T05:13:36.431Z,100656.78
2023-05-02T05:18:40.784Z,100658.06
2023-05-02T05:23:45.916Z,100667.09
2023-05-02T05:28:47.347Z,100676.31
2023-05-02T05:33:48.712Z,100686.38
2023-05-02T05:38:50.828Z,100702.50
2023-05-02T05:43:52.234Z,100709.88
2023-05-02T05:48:53.596Z,100710.41
2023-05-02T05:53:55.448Z,100720.34
2023-05-02T05:58:56.817Z,100725.91
2023-05-02T06:03:58.999Z,100737.84
2023-05-02T06:09:00.903Z,100731.28
2023-05-02T06:14:02.358Z,100732.38
2023-05-02T06:19:03.799Z,100737.03
2023-05-02T06:24:05.520Z,100731.09
2023-05-02T06:29:06.967Z,100745.44
2023-05-02T06:34:08.289Z,100751.00
2023-05-02T06:39:09.630Z,100758.72
2023-05-02T06:44:10.969Z,100763.00
2023-05-02T06:49:12.528Z,100768.53
2023-05-02T06:54:15.696Z,100766.06
2023-05-02T06:59:17.140Z,100785.44
2023-05-02T07:04:18.518Z,100781.78
2023-05-02T07:09:19.923Z,100788.72
2023-05-02T07:14:21.698Z,100796.66
2023-05-02T07:19:23.043Z,100802.72
2023-05-02T07:24:24.371Z,100821.50
2023-05-02T07:29:25.980Z,100833.28
2023-05-02T07:34:27.338Z,100827.31
2023-05-02T07:39:28.947Z,100829.22
2023-05-02T07:44:30.294Z,100840.25
2023-05-02T07:49:31.638Z,100840.59
2023-05-02T07:54:32.984Z,100844.44
2023-05-02T07:59:34.419Z,100851.03
2023-05-02T08:04:35.859Z,100846.69
2023-05-02T08:09:37.245Z,100844.50
2023-05-02T08:14:38.580Z,100852.31
2023-05-02T08:19:39.930Z,100856.50
2023-05-02T08:24:41.253Z,100856.25
2023-05-02T08:29:42.602Z,100863.97
2023-05-02T08:34:43.927Z,100871.03
2023-05-02T08:39:45.329Z,100876.72
2023-05-02T08:44:48.343Z,100884.03
2023-05-02T08:49:50.063Z,100892.41
2023-05-02T08:54:52.226Z,100897.00
2023-05-02T08:59:53.745Z,100901.72
2023-05-02T09:04:59.634Z,100902.94
2023-05-02T09:10:01.086Z,100905.28
2023-05-02T09:15:19.869Z,100912.06
2023-05-02T09:20:22.344Z,100912.00
2023-05-02T09:25:23.850Z,100920.88
2023-05-02T09:30:26.511Z,100920.63
2023-05-02T09:35:28.007Z,100913.97
2023-05-02T09:40:30.126Z,100918.97
2023-05-02T09:45:31.541Z,100915.34
2023-05-02T09:50:37.747Z,100912.16
2023-05-02T09:55:39.527Z,100918.84
2023-05-02T10:00:45.029Z,100926.47
2023-05-02T10:05:47.779Z,100920.56
2023-05-02T10:10:57.462Z,100916.09
2023-05-02T10:16:04.235Z,100916.66
2023-05-02T10:21:11.818Z,100916.66
2023-05-02T10:26:16.131Z,100914.09
2023-05-02T10:31:18.451Z,100903.22
2023-05-02T10:36:22.353Z,100898.06
2023-05-02T10:41:26.841Z,100905.28
2023-05-02T10:46:41.147Z,100895.50
2023-05-02T10:51:43.463Z,100908.00
2023-05-02T10:57:03.171Z,100895.97
2023-05-02T11:02:28.036Z,100891.56
2023-05-02T11:07:34.535Z,100885.00
2023-05-02T11:12:52.997Z,100880.25
2023-05-02T11:18:07.226Z,100879.06
2023-05-02T11:23:15.239Z,100880.00
2023-05-02T11:28:38.630Z,100881.34
2023-05-02T11:33:40.212Z,100877.41
2023-05-02T11:38:41.647Z,100874.44
2023-05-02T11:43:43.018Z,100877.75
2023-05-02T11:48:45.053Z,100882.91
2023-05-02T11:53:46.414Z,100879.91
2023-05-02T11:58:58.815Z,100889.19
2023-05-02T12:04:10.368Z,100894.69
2023-05-02T12:09:19.152Z,100884.66
2023-05-02T12:14:32.517Z,100878.81
2023-05-02T12:19:34.800Z,100896.09
2023-05-02T12:24:36.583Z,100897.06
2023-05-02T12:29:45.425Z,100903.28
2023-05-02T12:34:46.801Z,100911.69
2023-05-02T12:39:48.175Z,100914.97
2023-05-02T12:44:54.344Z,100923.78
2023-05-02T12:49:57.874Z,100928.53
2023-05-02T12:55:18.574Z,100929.47
2023-05-02T13:00:20.001Z,100933.84
2023-05-02T13:05:21.476Z,100942.59
2023-05-02T13:10:24.804Z,100927.13
2023-05-02T13:15:26.168Z,100921.63
2023-05-02T13:20:27.597Z,100918.34
2023-05-02T13:25:29.004Z,100931.16
2023-05-02T13:30:30.718Z,100934.38
2023-05-02T13:35:33.401Z,100925.69
2023-05-02T13:40:36.582Z,100932.69
2023-05-02T13:45:37.921Z,100927.94
2023-05-02T13:50:39.395Z,100922.84
2023-05-02T13:55:40.908Z,100935.84
2023-05-02T14:00:42.541Z,100928.41
2023-05-02T14:05:43.945Z,100928.25
2023-05-02T14:10:45.382Z,100921.69
2023-05-02T14:15:46.820Z,100927.56
2023-05-02T14:20:48.189Z,100931.94
2023-05-02T14:25:49.567Z,100945.69
2023-05-02T14:30:51.332Z,100942.03
2023-05-02T14:35:52.715Z,100949.41
2023-05-02T14:40:54.930Z,100955.03
2023-05-02T14:45:57.550Z,100978.28
2023-05-02T14:51:00.660Z,100968.72
2023-05-02T14:56:02.105Z,100959.19
2023-05-02T15:01:03.540Z,100972.72
2023-05-02T15:06:05.124Z,100973.53
2023-05-02T15:11:06.740Z,100977.44
2023-05-02T15:16:10.524Z,100976.00
2023-05-02T15:21:11.972Z,100995.63
2023-05-02T15:26:13.366Z,100998.00
2023-05-02T15:31:14.849Z,100999.34
2023-05-02T15:36:16.775Z,101004.38
2023-05-02T15:41:18.110Z,100995.06
2023-05-02T15:46:19.508Z,101009.66
2023-05-02T15:51:20.840Z,101005.56
2023-05-02T15:56:22.739Z,101002.91
2023-05-02T16:01:24.339Z,101011.03
2023-05-02T16:06:27.524Z,101013.53
2023-05-02T16:11:28.944Z,101024.44
2023-05-02T16:16:30.387Z,101018.13
2023-05-02T16:21:31.933Z,101026.75
2023-05-02T16:26:33.889Z,101022.81
2023-05-02T16:31:35.336Z,101024.13
2023-05-02T16:36:36.759Z,101038.28
2023-05-02T16:41:38.194Z,101026.94
2023-05-02T16:46:39.551Z,101031.75
2023-05-02T16:51:40.887Z,101044.13
2023-05-02T16:56:42.676Z,101051.66
2023-05-02T17:01:44.412Z,101042.97
2023-05-02T17:06:45.814Z,101043.03
2023-05-02T17:11:47.253Z,101051.81
2023-05-02T17:16:48.712Z,101059.88
2023-05-02T17:26:53.179Z,101072.00
2023-05-02T17:31:57.320Z,101069.97
2023-05-02T17:36:58.962Z,101073.44
2023-05-02T17:42:01.094Z,101081.59
2023-05-02T17:47:03.347Z,101090.31
2023-05-02T17:52:05.616Z,101100.63
2023-05-02T17:57:07.003Z,101107.69
2023-05-02T18:02:10.415Z,101113.44
2023-05-02T18:07:11.927Z,101116.56
2023-05-02T18:12:13.358Z,101122.03
2023-05-02T18:17:14.886Z,101123.06
2023-05-02T18:22:19.739Z,101125.72
2023-05-02T18:27:21.293Z,101146.06
2023-05-02T18:32:22.677Z,101154.47
2023-05-02T18:37:31.062Z,101159.03
2023-05-02T18:42:32.468Z,101167.19
2023-05-02T18:47:34.922Z,101166.31
2023-05-02T18:52:36.583Z,101182.31
2023-05-02T18:57:38.052Z,101193.25
2023-05-02T19:02:39.539Z,101209.50
2023-05-02T19:07:41.003Z,101212.66
2023-05-02T19:12:43.870Z,101217.47
2023-05-02T19:17:45.566Z,101226.59
2023-05-02T19:22:47.359Z,101236.88
2023-05-02T19:27:49.800Z,101250.31
2023-05-02T19:32:51.256Z,101249.84
2023-05-02T19:37:52.664Z,101259.09
2023-05-02T19:42:54.058Z,101265.72
2023-05-02T19:47:56.294Z,101283.50
2023-05-02T19:52:57.945Z,101272.88
2023-05-02T19:58:00.554Z,101285.75
2023-05-02T20:03:02.160Z,101281.22
2023-05-02T20:08:03.750Z,101277.34
2023-05-02T20:13:05.498Z,101287.31
2023-05-02T20:18:06.922Z,101300.13
2023-05-02T20:23:08.321Z,101298.75
2023-05-02T20:28:10.293Z,101306.69
2023-05-02T20:33:16.169Z,101318.78
2023-05-02T20:38:20.336Z,101324.69
2023-05-02T20:43:22.800Z,101326.50
2023-05-02T20:48:24.124Z,101342.00
2023-05-02T20:53:25.480Z,101347.69
2023-05-02T20:58:26.857Z,101353.06
2023-05-02T21:03:28.465Z,101356.88
2023-05-02T21:08:29.867Z,101355.50
2023-05-02T21:13:31.241Z,101367.75
2023-05-02T21:18:32.569Z,101355.88
2023-05-02T21:23:34.452Z,101361.53
2023-05-02T21:28:38.839Z,101355.94
2023-05-02T21:33:41.471Z,101364.09
2023-05-02T21:38:42.929Z,101359.84
2023-05-02T21:43:44.921Z,101369.53
2023-05-02T21:48:46.307Z,101366.94
2023-05-02T21:53:47.726Z,101366.03
2023-05-02T21:58:51.171Z,101362.09
2023-05-02T22:03:52.520Z,101362.94
2023-05-02T22:08:53.833Z,101373.16
2023-05-02T22:13:55.161Z,101370.09
2023-05-02T22:18:57.819Z,101368.19
2023-05-02T22:23:59.396Z,101376.72
2023-05-02T22:29:00.747Z,101373.63
2023-05-02T22:34:02.066Z,101370.72
2023-05-02T22:39:03.929Z,101358.88
2023-05-02T22:44:05.532Z,101380.09
2023-05-02T22:49:10.235Z,101385.22
2023-05-02T22:54:11.637Z,101403.25
2023-05-02T22:59:12.956Z,101398.63
2023-05-02T23:04:14.888Z,101395.16
2023-05-02T23:09:16.277Z,101409.19
2023-05-02T23:14:20.511Z,101399.19
2023-05-02T23:19:21.821Z,101403.25
2023-05-02T23:24:23.267Z,101402.00
2023-05-02T23:29:25.618Z,101396.69
2023-05-02T23:34:27.089Z,101402.19
2023-05-02T23:39:28.495Z,101400.25
2023-05-02T23:44:30.581Z,101399.97
2023-05-02T23:49:32.056Z,101409.78
2023-05-02T23:54:34.819Z,101413.44
2023-05-02T23:59:36.126Z,101406.66
